sensor_id;sensor_type;location;lat;lon;timestamp;pressure;altitude;pressure_sealevel;temperature;humidity
10348;BME280;5220;43.192;23.284;2023-02-20T00:01:45;97303.91;;;10.79;100.00
10348;BME280;5220;43.192;23.284;2023-02-20T00:04:14;97295.06;;;10.82;100.00
10348;BME280;5220;43.192;23.284;2023-02-20T00:06:40;97312.03;;;10.88;100.00
10348;BME280;5220;43.192;23.284;2023-02-20T00:09:07;97313.06;;;10.85;100.00
10348;BME280;5220;43.192;23.284;2023-02-20T00:11:34;97318.78;;;10.90;100.00
10348;BME280;5220;43.192;23.284;2023-02-20T00:14:00;97324.81;;;10.91;100.00
10348;BME280;5220;43.192;23.284;2023-02-20T00:16:27;97324.00;;;10.90;100.00
10348;BME280;5220;43.192;23.284;2023-02-20T00:18:54;97323.47;;;10.47;100.00
10348;BME280;5220;43.192;23.284;2023-02-20T00:21:22;97318.56;;;10.68;100.00
10348;BME280;5220;43.192;23.284;2023-02-20T00:23:48;97315.78;;;10.58;100.00
10348;BME280;5220;43.192;23.284;2023-02-20T00:26:15;97308.78;;;10.59;100.00
10348;BME280;5220;43.192;23.284;2023-02-20T00:28:42;97318.03;;;10.38;100.00
10348;BME280;5220;43.192;23.284;2023-02-20T00:31:13;97324.75;;;10.27;100.00
10348;BME280;5220;43.192;23.284;2023-02-20T00:33:40;97325.28;;;10.20;100.00
10348;BME280;5220;43.192;23.284;2023-02-20T00:36:07;97343.38;;;10.21;100.00
10348;BME280;5220;43.192;23.284;2023-02-20T00:38:42;97333.16;;;10.18;100.00
10348;BME280;5220;43.192;23.284;2023-02-20T00:41:10;97329.19;;;10.13;100.00
10348;BME280;5220;43.192;23.284;2023-02-20T00:43:38;97326.69;;;10.11;100.00
10348;BME280;5220;43.192;23.284;2023-02-20T00:46:05;97329.91;;;10.02;100.00
10348;BME280;5220;43.192;23.284;2023-02-20T00:48:32;97339.41;;;9.89;100.00
10348;BME280;5220;43.192;23.284;2023-02-20T00:50:59;97343.97;;;9.86;100.00
10348;BME280;5220;43.192;23.284;2023-02-20T00:53:25;97346.06;;;9.66;100.00
10348;BME280;5220;43.192;23.284;2023-02-20T00:55:54;97333.72;;;9.70;100.00
10348;BME280;5220;43.192;23.284;2023-02-20T00:58:20;97340.59;;;9.57;100.00
10348;BME280;5220;43.192;23.284;2023-02-20T01:00:47;97339.19;;;9.65;100.00
10348;BME280;5220;43.192;23.284;2023-02-20T01:03:14;97338.31;;;9.79;100.00
10348;BME280;5220;43.192;23.284;2023-02-20T01:05:40;97342.59;;;9.80;100.00
10348;BME280;5220;43.192;23.284;2023-02-20T01:08:07;97347.34;;;9.59;100.00
10348;BME280;5220;43.192;23.284;2023-02-20T01:10:34;97357.09;;;9.70;100.00
10348;BME280;5220;43.192;23.284;2023-02-20T01:13:02;97353.63;;;9.84;100.00
10348;BME280;5220;43.192;23.284;2023-02-20T01:15:29;97361.75;;;9.92;100.00
10348;BME280;5220;43.192;23.284;2023-02-20T01:17:55;97362.28;;;9.97;100.00
10348;BME280;5220;43.192;23.284;2023-02-20T01:20:22;97350.78;;;10.01;100.00
10348;BME280;5220;43.192;23.284;2023-02-20T01:22:49;97364.09;;;10.09;100.00
10348;BME280;5220;43.192;23.284;2023-02-20T01:25:16;97357.78;;;10.13;100.00
10348;BME280;5220;43.192;23.284;2023-02-20T01:27:42;97351.28;;;10.20;100.00
10348;BME280;5220;43.192;23.284;2023-02-20T01:30:11;97349.53;;;10.20;100.00
10348;BME280;5220;43.192;23.284;2023-02-20T01:32:37;97339.22;;;10.19;100.00
10348;BME280;5220;43.192;23.284;2023-02-20T01:35:05;97334.56;;;10.24;100.00
10348;BME280;5220;43.192;23.284;2023-02-20T01:37:31;97326.84;;;10.22;100.00
10348;BME280;5220;43.192;23.284;2023-02-20T01:39:58;97339.41;;;10.16;100.00
10348;BME280;5220;43.192;23.284;2023-02-20T01:42:28;97339.69;;;9.85;100.00
10348;BME280;5220;43.192;23.284;2023-02-20T01:45:15;97338.66;;;9.87;100.00
10348;BME280;5220;43.192;23.284;2023-02-20T01:47:43;97347.97;;;9.77;100.00
10348;BME280;5220;43.192;23.284;2023-02-20T01:50:11;97341.94;;;9.77;100.00
10348;BME280;5220;43.192;23.284;2023-02-20T01:52:40;97346.81;;;9.95;100.00
10348;BME280;5220;43.192;23.284;2023-02-20T01:55:12;97341.53;;;10.09;100.00
10348;BME280;5220;43.192;23.284;2023-02-20T01:57:43;97344.41;;;10.19;100.00
10348;BME280;5220;43.192;23.284;2023-02-20T02:00:18;97344.84;;;9.99;100.00
10348;BME280;5220;43.192;23.284;2023-02-20T02:02:50;97343.69;;;10.17;100.00
10348;BME280;5220;43.192;23.284;2023-02-20T02:05:18;97348.03;;;10.16;100.00
10348;BME280;5220;43.192;23.284;2023-02-20T02:07:45;97356.06;;;9.99;100.00
10348;BME280;5220;43.192;23.284;2023-02-20T02:10:13;97348.28;;;10.12;100.00
10348;BME280;5220;43.192;23.284;2023-02-20T02:12:45;97345.34;;;10.18;100.00
10348;BME280;5220;43.192;23.284;2023-02-20T02:15:18;97350.25;;;10.22;100.00
10348;BME280;5220;43.192;23.284;2023-02-20T02:18:02;97350.16;;;10.24;100.00
10348;BME280;5220;43.192;23.284;2023-02-20T02:21:02;97349.53;;;10.20;100.00
10348;BME280;5220;43.192;23.284;2023-02-20T02:24:04;97350.34;;;10.21;100.00
10348;BME280;5220;43.192;23.284;2023-02-20T02:27:06;97350.44;;;10.19;100.00
10348;BME280;5220;43.192;23.284;2023-02-20T02:29:49;97350.56;;;10.04;100.00
10348;BME280;5220;43.192;23.284;2023-02-20T02:38:24;97360.53;;;9.97;100.00
10348;BME280;5220;43.192;23.284;2023-02-20T02:40:56;97363.22;;;9.96;100.00
10348;BME280;5220;43.192;23.284;2023-02-20T02:43:35;97349.81;;;9.75;100.00
10348;BME280;5220;43.192;23.284;2023-02-20T02:46:08;97348.97;;;9.74;100.00
10348;BME280;5220;43.192;23.284;2023-02-20T02:48:44;97356.88;;;9.73;100.00
10348;BME280;5220;43.192;23.284;2023-02-20T02:51:16;97369.84;;;9.46;100.00
10348;BME280;5220;43.192;23.284;2023-02-20T02:54:08;97378.00;;;9.40;100.00
10348;BME280;5220;43.192;23.284;2023-02-20T02:56:37;97380.59;;;9.54;100.00
10348;BME280;5220;43.192;23.284;2023-02-20T02:59:05;97370.09;;;9.56;100.00
10348;BME280;5220;43.192;23.284;2023-02-20T03:01:37;97381.81;;;9.35;100.00
10348;BME280;5220;43.192;23.284;2023-02-20T03:04:09;97373.94;;;9.36;100.00
10348;BME280;5220;43.192;23.284;2023-02-20T03:06:39;97366.25;;;9.21;100.00
10348;BME280;5220;43.192;23.284;2023-02-20T03:09:11;97363.28;;;8.98;100.00
10348;BME280;5220;43.192;23.284;2023-02-20T03:11:40;97358.16;;;8.83;100.00
10348;BME280;5220;43.192;23.284;2023-02-20T03:14:11;97357.69;;;8.76;100.00
10348;BME280;5220;43.192;23.284;2023-02-20T03:16:58;97386.94;;;8.64;100.00
10348;BME280;5220;43.192;23.284;2023-02-20T03:19:32;97400.75;;;8.64;100.00
10348;BME280;5220;43.192;23.284;2023-02-20T03:21:59;97388.19;;;8.43;100.00
10348;BME280;5220;43.192;23.284;2023-02-20T03:24:30;97400.94;;;8.76;100.00
10348;BME280;5220;43.192;23.284;2023-02-20T03:27:18;97388.84;;;8.90;100.00
10348;BME280;5220;43.192;23.284;2023-02-20T03:29:46;97384.66;;;8.88;100.00
10348;BME280;5220;43.192;23.284;2023-02-20T03:32:14;97394.06;;;9.04;100.00
10348;BME280;5220;43.192;23.284;2023-02-20T03:35:01;97392.66;;;8.99;100.00
10348;BME280;5220;43.192;23.284;2023-02-20T03:37:47;97395.47;;;9.24;100.00
10348;BME280;5220;43.192;23.284;2023-02-20T03:40:36;97404.34;;;9.20;100.00
10348;BME280;5220;43.192;23.284;2023-02-20T03:43:20;97403.22;;;8.96;100.00
10348;BME280;5220;43.192;23.284;2023-02-20T03:45:48;97388.41;;;9.12;100.00
10348;BME280;5220;43.192;23.284;2023-02-20T03:48:20;97393.22;;;9.04;100.00
10348;BME280;5220;43.192;23.284;2023-02-20T03:50:48;97386.53;;;9.14;100.00
10348;BME280;5220;43.192;23.284;2023-02-20T03:53:15;97383.56;;;9.34;100.00
10348;BME280;5220;43.192;23.284;2023-02-20T03:55:44;97378.75;;;9.42;100.00
10348;BME280;5220;43.192;23.284;2023-02-20T03:58:14;97367.06;;;9.49;100.00
10348;BME280;5220;43.192;23.284;2023-02-20T04:00:46;97368.53;;;9.53;100.00
10348;BME280;5220;43.192;23.284;2023-02-20T04:03:16;97357.78;;;9.45;100.00
10348;BME280;5220;43.192;23.284;2023-02-20T04:05:47;97368.81;;;9.06;100.00
10348;BME280;5220;43.192;23.284;2023-02-20T04:08:17;97374.56;;;9.26;100.00
10348;BME280;5220;43.192;23.284;2023-02-20T04:10:50;97384.13;;;9.39;100.00
10348;BME280;5220;43.192;23.284;2023-02-20T04:13:19;97393.13;;;9.19;100.00
10348;BME280;5220;43.192;23.284;2023-02-20T04:15:46;97382.75;;;9.19;100.00
10348;BME280;5220;43.192;23.284;2023-02-20T04:18:15;97392.47;;;9.02;100.00
10348;BME280;5220;43.192;23.284;2023-02-20T04:20:44;97392.19;;;9.06;100.00
10348;BME280;5220;43.192;23.284;2023-02-20T04:23:15;97394.22;;;8.87;100.00
10348;BME280;5220;43.192;23.284;2023-02-20T04:25:44;97383.00;;;9.01;100.00
10348;BME280;5220;43.192;23.284;2023-02-20T04:28:14;97385.31;;;8.91;100.00
10348;BME280;5220;43.192;23.284;2023-02-20T04:30:42;97387.06;;;8.17;100.00
10348;BME280;5220;43.192;23.284;2023-02-20T04:33:09;97392.56;;;8.56;100.00
10348;BME280;5220;43.192;23.284;2023-02-20T04:35:36;97398.34;;;8.61;100.00
10348;BME280;5220;43.192;23.284;2023-02-20T04:38:02;97401.59;;;8.65;100.00
10348;BME280;5220;43.192;23.284;2023-02-20T04:40:29;97396.66;;;8.60;100.00
10348;BME280;5220;43.192;23.284;2023-02-20T04:42:56;97389.41;;;8.51;100.00
10348;BME280;5220;43.192;23.284;2023-02-20T04:45:24;97390.97;;;8.40;100.00
10348;BME280;5220;43.192;23.284;2023-02-20T04:47:51;97390.13;;;8.39;100.00
10348;BME280;5220;43.192;23.284;2023-02-20T04:50:20;97394.31;;;8.10;100.00
10348;BME280;5220;43.192;23.284;2023-02-20T04:52:47;97409.72;;;7.98;100.00
10348;BME280;5220;43.192;23.284;2023-02-20T04:55:14;97410.56;;;8.30;100.00
10348;BME280;5220;43.192;23.284;2023-02-20T04:57:41;97419.16;;;8.15;100.00
10348;BME280;5220;43.192;23.284;2023-02-20T05:00:09;97413.97;;;8.30;100.00
10348;BME280;5220;43.192;23.284;2023-02-20T05:02:38;97414.19;;;8.26;100.00
10348;BME280;5220;43.192;23.284;2023-02-20T05:05:06;97421.41;;;8.21;100.00
10348;BME280;5220;43.192;23.284;2023-02-20T05:07:40;97429.91;;;8.23;100.00
10348;BME280;5220;43.192;23.284;2023-02-20T05:10:07;97422.50;;;8.32;100.00
10348;BME280;5220;43.192;23.284;2023-02-20T05:12:34;97442.53;;;8.44;100.00
10348;BME280;5220;43.192;23.284;2023-02-20T05:15:00;97434.34;;;8.52;100.00
10348;BME280;5220;43.192;23.284;2023-02-20T05:17:27;97439.78;;;8.47;100.00
10348;BME280;5220;43.192;23.284;2023-02-20T05:19:55;97431.44;;;8.42;100.00
10348;BME280;5220;43.192;23.284;2023-02-20T05:22:22;97444.22;;;8.45;100.00
10348;BME280;5220;43.192;23.284;2023-02-20T05:24:49;97442.56;;;8.29;100.00
10348;BME280;5220;43.192;23.284;2023-02-20T05:27:18;97450.59;;;8.24;100.00
10348;BME280;5220;43.192;23.284;2023-02-20T05:29:45;97443.06;;;8.35;100.00
10348;BME280;5220;43.192;23.284;2023-02-20T05:32:13;97458.19;;;8.43;100.00
10348;BME280;5220;43.192;23.284;2023-02-20T05:34:40;97458.03;;;8.46;100.00
10348;BME280;5220;43.192;23.284;2023-02-20T05:37:09;97467.44;;;8.47;100.00
10348;BME280;5220;43.192;23.284;2023-02-20T05:39:35;97463.91;;;8.34;100.00
10348;BME280;5220;43.192;23.284;2023-02-20T05:42:03;97476.50;;;8.40;100.00
10348;BME280;5220;43.192;23.284;2023-02-20T05:44:30;97476.34;;;8.43;100.00
10348;BME280;5220;43.192;23.284;2023-02-20T05:46:57;97483.84;;;8.47;100.00
10348;BME280;5220;43.192;23.284;2023-02-20T05:49:24;97494.06;;;8.35;100.00
10348;BME280;5220;43.192;23.284;2023-02-20T05:51:51;97504.75;;;8.13;100.00
10348;BME280;5220;43.192;23.284;2023-02-20T05:54:22;97512.31;;;8.33;100.00
10348;BME280;5220;43.192;23.284;2023-02-20T05:56:51;97520.59;;;8.40;100.00
10348;BME280;5220;43.192;23.284;2023-02-20T05:59:20;97518.91;;;8.39;100.00
10348;BME280;5220;43.192;23.284;2023-02-20T06:01:47;97518.81;;;8.25;100.00
10348;BME280;5220;43.192;23.284;2023-02-20T06:04:17;97524.09;;;8.39;100.00
10348;BME280;5220;43.192;23.284;2023-02-20T06:06:43;97517.47;;;8.49;100.00
10348;BME280;5220;43.192;23.284;2023-02-20T06:09:11;97529.84;;;8.44;100.00
10348;BME280;5220;43.192;23.284;2023-02-20T06:11:48;97534.06;;;8.31;100.00
10348;BME280;5220;43.192;23.284;2023-02-20T06:14:15;97533.59;;;8.54;100.00
10348;BME280;5220;43.192;23.284;2023-02-20T06:16:43;97536.97;;;8.56;100.00
10348;BME280;5220;43.192;23.284;2023-02-20T06:19:10;97543.28;;;8.66;71.35
10348;BME280;5220;43.192;23.284;2023-02-20T06:21:37;97543.41;;;8.94;70.49
10348;BME280;5220;43.192;23.284;2023-02-20T06:24:05;97543.00;;;9.16;68.64
10348;BME280;5220;43.192;23.284;2023-02-20T06:26:38;97543.13;;;9.29;64.52
10348;BME280;5220;43.192;23.284;2023-02-20T06:29:06;97549.22;;;9.57;69.39
10348;BME280;5220;43.192;23.284;2023-02-20T06:31:33;97543.84;;;9.74;69.64
10348;BME280;5220;43.192;23.284;2023-02-20T06:34:00;97549.50;;;9.95;72.28
10348;BME280;5220;43.192;23.284;2023-02-20T06:36:28;97551.25;;;10.09;72.68
10348;BME280;5220;43.192;23.284;2023-02-20T06:38:57;97545.63;;;10.02;70.23
10348;BME280;5220;43.192;23.284;2023-02-20T06:41:24;97551.66;;;10.17;68.11
10348;BME280;5220;43.192;23.284;2023-02-20T06:43:51;97553.31;;;10.32;64.48
10348;BME280;5220;43.192;23.284;2023-02-20T06:46:19;97549.09;;;10.44;69.90
10348;BME280;5220;43.192;23.284;2023-02-20T06:48:48;97556.25;;;10.40;70.33
10348;BME280;5220;43.192;23.284;2023-02-20T06:51:15;97564.31;;;10.50;67.71
10348;BME280;5220;43.192;23.284;2023-02-20T06:53:43;97563.41;;;10.51;70.64
10348;BME280;5220;43.192;23.284;2023-02-20T06:56:13;97564.03;;;10.54;64.35
10348;BME280;5220;43.192;23.284;2023-02-20T06:58:40;97558.06;;;10.66;65.00
10348;BME280;5220;43.192;23.284;2023-02-20T07:01:07;97560.00;;;10.63;69.62
10348;BME280;5220;43.192;23.284;2023-02-20T07:03:36;97555.50;;;10.79;63.62
10348;BME280;5220;43.192;23.284;2023-02-20T07:06:03;97555.03;;;10.99;61.67
10348;BME280;5220;43.192;23.284;2023-02-20T07:08:31;97559.06;;;11.17;46.83
10348;BME280;5220;43.192;23.284;2023-02-20T07:10:58;97550.53;;;11.28;39.80
10348;BME280;5220;43.192;23.284;2023-02-20T07:13:24;97559.09;;;11.55;35.25
10348;BME280;5220;43.192;23.284;2023-02-20T07:15:51;97554.56;;;11.84;34.81
10348;BME280;5220;43.192;23.284;2023-02-20T07:18:18;97562.16;;;12.00;31.43
10348;BME280;5220;43.192;23.284;2023-02-20T07:20:50;97554.66;;;12.20;31.12
10348;BME280;5220;43.192;23.284;2023-02-20T07:23:16;97546.78;;;12.33;32.08
10348;BME280;5220;43.192;23.284;2023-02-20T07:25:43;97553.13;;;12.42;28.13
10348;BME280;5220;43.192;23.284;2023-02-20T07:28:12;97566.88;;;12.56;27.57
10348;BME280;5220;43.192;23.284;2023-02-20T07:30:39;97573.03;;;12.43;27.10
10348;BME280;5220;43.192;23.284;2023-02-20T07:33:05;97574.69;;;12.56;29.60
10348;BME280;5220;43.192;23.284;2023-02-20T07:35:32;97579.91;;;12.56;28.46
10348;BME280;5220;43.192;23.284;2023-02-20T07:38:00;97566.88;;;12.56;26.78
10348;BME280;5220;43.192;23.284;2023-02-20T07:40:28;97581.06;;;12.52;25.78
10348;BME280;5220;43.192;23.284;2023-02-20T07:42:54;97588.63;;;12.68;27.17
10348;BME280;5220;43.192;23.284;2023-02-20T07:45:21;97587.84;;;12.55;25.45
10348;BME280;5220;43.192;23.284;2023-02-20T07:47:48;97598.28;;;12.55;27.73
10348;BME280;5220;43.192;23.284;2023-02-20T07:50:16;97595.09;;;12.38;24.97
10348;BME280;5220;43.192;23.284;2023-02-20T07:52:43;97610.59;;;12.53;24.42
10348;BME280;5220;43.192;23.284;2023-02-20T07:55:14;97607.06;;;12.54;26.25
10348;BME280;5220;43.192;23.284;2023-02-20T07:57:41;97612.69;;;12.60;24.82
10348;BME280;5220;43.192;23.284;2023-02-20T08:00:13;97607.97;;;12.65;25.69
10348;BME280;5220;43.192;23.284;2023-02-20T08:02:40;97608.25;;;12.73;24.20
10348;BME280;5220;43.192;23.284;2023-02-20T08:05:06;97613.66;;;12.83;24.29
10348;BME280;5220;43.192;23.284;2023-02-20T08:07:33;97620.09;;;12.90;23.90
10348;BME280;5220;43.192;23.284;2023-02-20T08:10:00;97616.34;;;12.94;23.63
10348;BME280;5220;43.192;23.284;2023-02-20T08:12:28;97632.66;;;12.85;23.27
10348;BME280;5220;43.192;23.284;2023-02-20T08:14:55;97612.72;;;12.84;23.16
10348;BME280;5220;43.192;23.284;2023-02-20T08:17:22;97631.16;;;12.93;24.62
10348;BME280;5220;43.192;23.284;2023-02-20T08:19:48;97624.66;;;13.12;25.97
10348;BME280;5220;43.192;23.284;2023-02-20T08:22:15;97617.44;;;13.03;22.85
10348;BME280;5220;43.192;23.284;2023-02-20T08:24:42;97622.25;;;13.09;23.19
10348;BME280;5220;43.192;23.284;2023-02-20T08:27:09;97624.88;;;13.09;21.92
10348;BME280;5220;43.192;23.284;2023-02-20T08:29:37;97622.56;;;13.17;23.91
10348;BME280;5220;43.192;23.284;2023-02-20T08:32:03;97612.59;;;13.22;22.57
10348;BME280;5220;43.192;23.284;2023-02-20T08:34:30;97620.81;;;13.28;21.96
10348;BME280;5220;43.192;23.284;2023-02-20T08:36:57;97626.66;;;13.32;23.20
10348;BME280;5220;43.192;23.284;2023-02-20T08:39:24;97628.75;;;13.27;22.88
10348;BME280;5220;43.192;23.284;2023-02-20T08:41:51;97631.00;;;13.44;24.50
10348;BME280;5220;43.192;23.284;2023-02-20T08:44:18;97629.47;;;13.53;23.73
10348;BME280;5220;43.192;23.284;2023-02-20T08:46:47;97639.75;;;13.43;24.12
10348;BME280;5220;43.192;23.284;2023-02-20T08:49:14;97631.63;;;13.59;24.30
10348;BME280;5220;43.192;23.284;2023-02-20T08:51:42;97625.25;;;13.74;24.91
10348;BME280;5220;43.192;23.284;2023-02-20T08:54:09;97629.91;;;13.81;25.23
10348;BME280;5220;43.192;23.284;2023-02-20T08:56:36;97631.38;;;13.85;23.82
10348;BME280;5220;43.192;23.284;2023-02-20T08:59:03;97624.22;;;13.87;23.79
10348;BME280;5220;43.192;23.284;2023-02-20T09:01:30;97626.13;;;13.96;23.39
10348;BME280;5220;43.192;23.284;2023-02-20T09:03:58;97631.38;;;13.85;23.51
10348;BME280;5220;43.192;23.284;2023-02-20T09:06:25;97639.41;;;13.82;23.82
10348;BME280;5220;43.192;23.284;2023-02-20T09:08:53;97618.28;;;13.96;23.41
10348;BME280;5220;43.192;23.284;2023-02-20T09:11:20;97628.19;;;14.04;23.42
10348;BME280;5220;43.192;23.284;2023-02-20T09:13:47;97640.91;;;13.97;23.36
10348;BME280;5220;43.192;23.284;2023-02-20T09:16:17;97642.53;;;13.98;24.03
10348;BME280;5220;43.192;23.284;2023-02-20T09:18:45;97636.03;;;14.04;23.93
10348;BME280;5220;43.192;23.284;2023-02-20T09:21:16;97651.47;;;13.96;23.62
10348;BME280;5220;43.192;23.284;2023-02-20T09:23:43;97653.94;;;13.86;24.31
10348;BME280;5220;43.192;23.284;2023-02-20T09:26:10;97659.91;;;13.88;24.01
10348;BME280;5220;43.192;23.284;2023-02-20T09:28:37;97647.72;;;13.76;23.20
10348;BME280;5220;43.192;23.284;2023-02-20T09:31:05;97648.69;;;13.86;24.09
10348;BME280;5220;43.192;23.284;2023-02-20T09:33:31;97649.78;;;13.95;24.88
10348;BME280;5220;43.192;23.284;2023-02-20T09:35:58;97654.22;;;14.06;24.60
10348;BME280;5220;43.192;23.284;2023-02-20T09:38:26;97644.13;;;14.12;23.51
10348;BME280;5220;43.192;23.284;2023-02-20T09:40:57;97649.03;;;14.28;23.22
10348;BME280;5220;43.192;23.284;2023-02-20T09:43:32;97642.47;;;14.22;23.22
10348;BME280;5220;43.192;23.284;2023-02-20T09:46:05;97662.63;;;14.44;24.54
10348;BME280;5220;43.192;23.284;2023-02-20T09:48:50;97654.06;;;14.53;24.32
10348;BME280;5220;43.192;23.284;2023-02-20T09:51:20;97647.16;;;14.63;24.19
10348;BME280;5220;43.192;23.284;2023-02-20T09:53:54;97648.94;;;14.51;23.83
10348;BME280;5220;43.192;23.284;2023-02-20T09:56:26;97651.94;;;14.47;23.17
10348;BME280;5220;43.192;23.284;2023-02-20T09:58:57;97651.22;;;14.56;23.84
10348;BME280;5220;43.192;23.284;2023-02-20T10:01:26;97647.41;;;14.60;23.82
10348;BME280;5220;43.192;23.284;2023-02-20T10:03:55;97646.78;;;14.45;24.22
10348;BME280;5220;43.192;23.284;2023-02-20T10:06:25;97648.47;;;14.46;24.23
10348;BME280;5220;43.192;23.284;2023-02-20T10:08:55;97649.06;;;14.50;24.25
10348;BME280;5220;43.192;23.284;2023-02-20T10:11:42;97653.56;;;14.48;23.28
10348;BME280;5220;43.192;23.284;2023-02-20T10:17:06;97630.75;;;14.50;24.66
10348;BME280;5220;43.192;23.284;2023-02-20T10:19:40;97629.28;;;14.57;23.92
10348;BME280;5220;43.192;23.284;2023-02-20T10:22:12;97623.38;;;14.44;23.59
10348;BME280;5220;43.192;23.284;2023-02-20T10:24:54;97619.06;;;14.54;24.04
10348;BME280;5220;43.192;23.284;2023-02-20T10:27:30;97621.91;;;14.73;24.43
10348;BME280;5220;43.192;23.284;2023-02-20T10:29:58;97633.22;;;14.63;24.04
10348;BME280;5220;43.192;23.284;2023-02-20T10:32:31;97624.06;;;14.57;23.63
10348;BME280;5220;43.192;23.284;2023-02-20T10:35:05;97614.91;;;14.51;23.71
10348;BME280;5220;43.192;23.284;2023-02-20T10:37:37;97627.88;;;14.53;24.13
10348;BME280;5220;43.192;23.284;2023-02-20T10:40:14;97633.00;;;14.66;23.55
10348;BME280;5220;43.192;23.284;2023-02-20T10:42:47;97636.66;;;14.74;24.87
10348;BME280;5220;43.192;23.284;2023-02-20T10:45:22;97630.25;;;14.56;24.79
10348;BME280;5220;43.192;23.284;2023-02-20T10:47:56;97628.22;;;14.71;25.91
10348;BME280;5220;43.192;23.284;2023-02-20T10:50:28;97617.97;;;14.79;25.11
10348;BME280;5220;43.192;23.284;2023-02-20T10:53:01;97631.91;;;14.68;25.24
10348;BME280;5220;43.192;23.284;2023-02-20T10:55:34;97635.22;;;14.70;25.84
10348;BME280;5220;43.192;23.284;2023-02-20T10:58:11;97643.94;;;14.71;24.48
10348;BME280;5220;43.192;23.284;2023-02-20T11:00:42;97642.63;;;14.65;25.02
10348;BME280;5220;43.192;23.284;2023-02-20T11:03:14;97644.53;;;14.63;25.62
10348;BME280;5220;43.192;23.284;2023-02-20T11:05:48;97650.81;;;14.83;25.07
10348;BME280;5220;43.192;23.284;2023-02-20T11:08:17;97622.44;;;14.99;25.32
10348;BME280;5220;43.192;23.284;2023-02-20T11:10:48;97629.22;;;15.01;25.31
10348;BME280;5220;43.192;23.284;2023-02-20T11:13:18;97633.13;;;15.07;24.38
10348;BME280;5220;43.192;23.284;2023-02-20T11:15:49;97643.56;;;14.97;24.29
10348;BME280;5220;43.192;23.284;2023-02-20T11:18:22;97645.22;;;14.87;25.08
10348;BME280;5220;43.192;23.284;2023-02-20T11:20:53;97639.81;;;15.11;23.96
10348;BME280;5220;43.192;23.284;2023-02-20T11:23:36;97636.63;;;14.96;24.12
10348;BME280;5220;43.192;23.284;2023-02-20T11:26:26;97642.31;;;15.13;33.50
10348;BME280;5220;43.192;23.284;2023-02-20T11:29:02;97631.19;;;15.31;26.58
10348;BME280;5220;43.192;23.284;2023-02-20T11:31:31;97623.19;;;15.33;25.16
10348;BME280;5220;43.192;23.284;2023-02-20T11:34:00;97634.41;;;15.24;24.02
10348;BME280;5220;43.192;23.284;2023-02-20T11:36:31;97644.19;;;15.22;25.33
10348;BME280;5220;43.192;23.284;2023-02-20T11:39:01;97633.50;;;15.45;25.87
10348;BME280;5220;43.192;23.284;2023-02-20T11:41:33;97633.38;;;15.15;25.56
10348;BME280;5220;43.192;23.284;2023-02-20T11:44:21;97631.09;;;15.11;26.78
10348;BME280;5220;43.192;23.284;2023-02-20T11:47:24;97644.50;;;14.85;26.84
10348;BME280;5220;43.192;23.284;2023-02-20T11:50:08;97640.47;;;14.81;29.92
10348;BME280;5220;43.192;23.284;2023-02-20T11:52:35;97634.13;;;14.95;30.06
10348;BME280;5220;43.192;23.284;2023-02-20T11:55:11;97638.72;;;15.14;29.34
10348;BME280;5220;43.192;23.284;2023-02-20T11:57:45;97613.06;;;14.96;30.04
10348;BME280;5220;43.192;23.284;2023-02-20T12:00:17;97614.03;;;15.27;32.58
10348;BME280;5220;43.192;23.284;2023-02-20T12:02:53;97614.16;;;15.26;31.26
10348;BME280;5220;43.192;23.284;2023-02-20T12:05:21;97613.09;;;15.28;32.33
10348;BME280;5220;43.192;23.284;2023-02-20T12:07:57;97622.34;;;15.32;33.65
10348;BME280;5220;43.192;23.284;2023-02-20T12:10:45;97612.84;;;15.20;33.72
10348;BME280;5220;43.192;23.284;2023-02-20T12:13:15;97611.78;;;15.23;33.80
10348;BME280;5220;43.192;23.284;2023-02-20T12:15:44;97609.38;;;15.31;36.51
10348;BME280;5220;43.192;23.284;2023-02-20T12:18:35;97624.72;;;15.35;34.24
10348;BME280;5220;43.192;23.284;2023-02-20T12:21:12;97639.44;;;15.16;34.58
10348;BME280;5220;43.192;23.284;2023-02-20T12:23:47;97609.16;;;15.23;34.96
10348;BME280;5220;43.192;23.284;2023-02-20T12:26:30;97604.22;;;15.40;35.27
10348;BME280;5220;43.192;23.284;2023-02-20T12:29:13;97602.66;;;15.49;35.76
10348;BME280;5220;43.192;23.284;2023-02-20T12:31:52;97603.31;;;15.62;35.80
10348;BME280;5220;43.192;23.284;2023-02-20T12:34:37;97612.34;;;15.69;35.89
10348;BME280;5220;43.192;23.284;2023-02-20T12:37:15;97607.56;;;15.63;36.59
10348;BME280;5220;43.192;23.284;2023-02-20T12:39:52;97606.44;;;15.77;36.52
10348;BME280;5220;43.192;23.284;2023-02-20T12:42:29;97603.44;;;15.81;36.69
10348;BME280;5220;43.192;23.284;2023-02-20T12:45:09;97604.84;;;15.85;36.85
10348;BME280;5220;43.192;23.284;2023-02-20T12:47:41;97616.72;;;15.48;36.43
10348;BME280;5220;43.192;23.284;2023-02-20T12:50:32;97608.00;;;15.47;37.20
10348;BME280;5220;43.192;23.284;2023-02-20T12:53:16;97612.03;;;15.63;36.45
10348;BME280;5220;43.192;23.284;2023-02-20T12:56:06;97613.78;;;15.30;37.44
10348;BME280;5220;43.192;23.284;2023-02-20T12:58:47;97624.53;;;15.27;37.16
10348;BME280;5220;43.192;23.284;2023-02-20T13:01:18;97626.78;;;14.78;38.04
10348;BME280;5220;43.192;23.284;2023-02-20T13:03:55;97624.63;;;14.83;37.99
10348;BME280;5220;43.192;23.284;2023-02-20T13:06:31;97613.34;;;14.71;38.20
10348;BME280;5220;43.192;23.284;2023-02-20T13:09:04;97615.22;;;14.80;38.19
10348;BME280;5220;43.192;23.284;2023-02-20T13:11:35;97610.59;;;14.84;38.31
10348;BME280;5220;43.192;23.284;2023-02-20T13:14:15;97620.19;;;14.94;38.69
10348;BME280;5220;43.192;23.284;2023-02-20T13:16:49;97606.63;;;15.00;38.97
10348;BME280;5220;43.192;23.284;2023-02-20T13:19:24;97617.50;;;15.28;38.39
10348;BME280;5220;43.192;23.284;2023-02-20T13:21:53;97618.84;;;15.11;38.72
10348;BME280;5220;43.192;23.284;2023-02-20T13:24:28;97612.75;;;15.11;38.44
10348;BME280;5220;43.192;23.284;2023-02-20T13:26:56;97617.91;;;15.01;38.61
10348;BME280;5220;43.192;23.284;2023-02-20T13:29:24;97641.91;;;14.74;39.55